Mildred, Montana
Current Conditions -  °F | °C
As of 8:35 PM on Saturday 22 Nov 2014 (Local Time) from KGDV Reporting Station
Overcast Overcast  
Wind Chill: 31°   Ceiling: 11000
Heat Index: 39°   Visibility: 10mi
Dew Point: 27°   Wind: 14mph
Humidity: 61%   Direction: 260°W
Pressure: 29.38"   Gusts: NA
Location:  46.68°N, 104.96°W
Report Text: KGDV 230335Z AUTO 26012KT 10SM OVC110 04/M03 A2938 RMK AO1
Loading
Personal Weather Stations






























Interactive Weather Map New forecast layout! Learn more

10-Day Weather Forecast

Advertisements
Track Severe Weather on mobile